sensor_id;sensor_type;location;lat;lon;timestamp;P1;durP1;ratioP1;P2;durP2;ratioP2
8100;SDS011;4093;53.470;9.832;2023-01-26T00:02:06;77.57;;;32.57;;
8100;SDS011;4093;53.470;9.832;2023-01-26T00:04:34;73.67;;;28.93;;
8100;SDS011;4093;53.470;9.832;2023-01-26T00:07:03;77.73;;;31.70;;
8100;SDS011;4093;53.470;9.832;2023-01-26T00:09:31;70.13;;;29.53;;
8100;SDS011;4093;53.470;9.832;2023-01-26T00:11:58;75.40;;;32.97;;
8100;SDS011;4093;53.470;9.832;2023-01-26T00:14:26;76.33;;;31.57;;
8100;SDS011;4093;53.470;9.832;2023-01-26T00:17:14;79.93;;;29.53;;
8100;SDS011;4093;53.470;9.832;2023-01-26T00:19:54;81.83;;;33.97;;
8100;SDS011;4093;53.470;9.832;2023-01-26T00:22:25;79.90;;;31.70;;
8100;SDS011;4093;53.470;9.832;2023-01-26T00:24:53;80.50;;;32.90;;
8100;SDS011;4093;53.470;9.832;2023-01-26T00:27:21;76.40;;;31.13;;
8100;SDS011;4093;53.470;9.832;2023-01-26T00:29:48;77.47;;;31.67;;
8100;SDS011;4093;53.470;9.832;2023-01-26T00:32:16;84.13;;;31.97;;
8100;SDS011;4093;53.470;9.832;2023-01-26T00:34:44;74.47;;;29.77;;
8100;SDS011;4093;53.470;9.832;2023-01-26T00:37:11;81.93;;;31.80;;
8100;SDS011;4093;53.470;9.832;2023-01-26T00:39:40;86.23;;;31.90;;
8100;SDS011;4093;53.470;9.832;2023-01-26T00:42:09;81.07;;;32.33;;
8100;SDS011;4093;53.470;9.832;2023-01-26T00:44:39;84.43;;;32.63;;
8100;SDS011;4093;53.470;9.832;2023-01-26T00:47:08;79.67;;;31.67;;
8100;SDS011;4093;53.470;9.832;2023-01-26T00:49:37;86.97;;;31.67;;
8100;SDS011;4093;53.470;9.832;2023-01-26T00:52:04;75.83;;;32.23;;
8100;SDS011;4093;53.470;9.832;2023-01-26T00:54:32;81.77;;;32.07;;
8100;SDS011;4093;53.470;9.832;2023-01-26T00:57:01;85.43;;;32.67;;
8100;SDS011;4093;53.470;9.832;2023-01-26T00:59:29;81.73;;;31.90;;
8100;SDS011;4093;53.470;9.832;2023-01-26T01:01:57;77.93;;;29.00;;
8100;SDS011;4093;53.470;9.832;2023-01-26T01:04:26;77.90;;;31.80;;
8100;SDS011;4093;53.470;9.832;2023-01-26T01:06:55;79.23;;;30.83;;
8100;SDS011;4093;53.470;9.832;2023-01-26T01:09:22;81.80;;;30.43;;
8100;SDS011;4093;53.470;9.832;2023-01-26T01:11:50;83.47;;;30.93;;
8100;SDS011;4093;53.470;9.832;2023-01-26T01:14:19;84.23;;;33.40;;
8100;SDS011;4093;53.470;9.832;2023-01-26T01:16:47;88.57;;;31.70;;
8100;SDS011;4093;53.470;9.832;2023-01-26T01:19:16;77.63;;;29.33;;
8100;SDS011;4093;53.470;9.832;2023-01-26T01:21:44;80.73;;;30.57;;
8100;SDS011;4093;53.470;9.832;2023-01-26T01:24:12;80.57;;;31.00;;
8100;SDS011;4093;53.470;9.832;2023-01-26T01:26:39;90.80;;;33.17;;
8100;SDS011;4093;53.470;9.832;2023-01-26T01:29:08;73.83;;;29.03;;
8100;SDS011;4093;53.470;9.832;2023-01-26T01:31:41;78.63;;;30.33;;
8100;SDS011;4093;53.470;9.832;2023-01-26T01:34:09;81.80;;;31.87;;
8100;SDS011;4093;53.470;9.832;2023-01-26T01:36:37;86.67;;;32.10;;
8100;SDS011;4093;53.470;9.832;2023-01-26T01:39:04;85.13;;;32.27;;
8100;SDS011;4093;53.470;9.832;2023-01-26T01:41:32;75.70;;;31.27;;
8100;SDS011;4093;53.470;9.832;2023-01-26T01:44:16;83.57;;;31.43;;
8100;SDS011;4093;53.470;9.832;2023-01-26T01:46:50;81.20;;;31.80;;
8100;SDS011;4093;53.470;9.832;2023-01-26T01:49:22;82.93;;;31.13;;
8100;SDS011;4093;53.470;9.832;2023-01-26T01:51:53;80.80;;;30.80;;
8100;SDS011;4093;53.470;9.832;2023-01-26T01:54:26;83.57;;;31.57;;
8100;SDS011;4093;53.470;9.832;2023-01-26T01:56:59;75.77;;;29.17;;
8100;SDS011;4093;53.470;9.832;2023-01-26T01:59:30;85.67;;;33.23;;
8100;SDS011;4093;53.470;9.832;2023-01-26T02:02:00;78.93;;;30.13;;
8100;SDS011;4093;53.470;9.832;2023-01-26T02:04:27;76.27;;;29.53;;
8100;SDS011;4093;53.470;9.832;2023-01-26T02:06:56;78.27;;;30.97;;
8100;SDS011;4093;53.470;9.832;2023-01-26T02:09:27;81.33;;;28.93;;
8100;SDS011;4093;53.470;9.832;2023-01-26T02:12:16;84.07;;;30.83;;
8100;SDS011;4093;53.470;9.832;2023-01-26T02:14:47;72.73;;;26.70;;
8100;SDS011;4093;53.470;9.832;2023-01-26T02:17:17;76.40;;;30.33;;
8100;SDS011;4093;53.470;9.832;2023-01-26T02:19:48;74.00;;;29.80;;
8100;SDS011;4093;53.470;9.832;2023-01-26T02:22:26;75.97;;;30.33;;
8100;SDS011;4093;53.470;9.832;2023-01-26T02:25:00;81.60;;;29.63;;
8100;SDS011;4093;53.470;9.832;2023-01-26T02:27:35;81.07;;;31.27;;
8100;SDS011;4093;53.470;9.832;2023-01-26T02:30:03;83.33;;;31.93;;
8100;SDS011;4093;53.470;9.832;2023-01-26T02:32:33;71.67;;;26.60;;
8100;SDS011;4093;53.470;9.832;2023-01-26T02:35:01;74.73;;;29.23;;
8100;SDS011;4093;53.470;9.832;2023-01-26T02:37:28;79.47;;;28.87;;
8100;SDS011;4093;53.470;9.832;2023-01-26T02:39:57;76.43;;;30.40;;
8100;SDS011;4093;53.470;9.832;2023-01-26T02:42:30;67.57;;;28.57;;
8100;SDS011;4093;53.470;9.832;2023-01-26T02:45:09;80.13;;;29.93;;
8100;SDS011;4093;53.470;9.832;2023-01-26T02:47:39;62.77;;;25.63;;
8100;SDS011;4093;53.470;9.832;2023-01-26T02:50:07;69.27;;;28.17;;
8100;SDS011;4093;53.470;9.832;2023-01-26T02:52:36;72.43;;;28.40;;
8100;SDS011;4093;53.470;9.832;2023-01-26T02:55:05;71.47;;;28.37;;
8100;SDS011;4093;53.470;9.832;2023-01-26T02:57:47;77.80;;;29.97;;
8100;SDS011;4093;53.470;9.832;2023-01-26T03:00:17;72.80;;;29.67;;
8100;SDS011;4093;53.470;9.832;2023-01-26T03:02:46;74.10;;;29.17;;
8100;SDS011;4093;53.470;9.832;2023-01-26T03:05:14;78.57;;;29.97;;
8100;SDS011;4093;53.470;9.832;2023-01-26T03:07:42;67.63;;;28.67;;
8100;SDS011;4093;53.470;9.832;2023-01-26T03:10:10;72.33;;;28.20;;
8100;SDS011;4093;53.470;9.832;2023-01-26T03:12:38;72.70;;;28.63;;
8100;SDS011;4093;53.470;9.832;2023-01-26T03:15:06;71.93;;;29.07;;
8100;SDS011;4093;53.470;9.832;2023-01-26T03:18:00;73.20;;;28.40;;
8100;SDS011;4093;53.470;9.832;2023-01-26T03:20:46;67.23;;;28.73;;
8100;SDS011;4093;53.470;9.832;2023-01-26T03:23:32;69.50;;;27.47;;
8100;SDS011;4093;53.470;9.832;2023-01-26T03:26:17;72.60;;;27.87;;
8100;SDS011;4093;53.470;9.832;2023-01-26T03:29:02;78.27;;;30.83;;
8100;SDS011;4093;53.470;9.832;2023-01-26T03:31:30;75.90;;;29.53;;
8100;SDS011;4093;53.470;9.832;2023-01-26T03:33:59;74.23;;;27.33;;
8100;SDS011;4093;53.470;9.832;2023-01-26T03:36:27;80.27;;;30.00;;
8100;SDS011;4093;53.470;9.832;2023-01-26T03:38:54;69.67;;;27.87;;
8100;SDS011;4093;53.470;9.832;2023-01-26T03:41:22;70.40;;;27.87;;
8100;SDS011;4093;53.470;9.832;2023-01-26T03:44:07;75.20;;;28.73;;
8100;SDS011;4093;53.470;9.832;2023-01-26T03:46:52;70.67;;;28.87;;
8100;SDS011;4093;53.470;9.832;2023-01-26T03:49:39;82.67;;;29.63;;
8100;SDS011;4093;53.470;9.832;2023-01-26T03:52:25;69.43;;;28.37;;
8100;SDS011;4093;53.470;9.832;2023-01-26T03:55:10;80.33;;;29.83;;
8100;SDS011;4093;53.470;9.832;2023-01-26T03:57:55;73.87;;;27.40;;
8100;SDS011;4093;53.470;9.832;2023-01-26T04:00:23;70.33;;;27.73;;
8100;SDS011;4093;53.470;9.832;2023-01-26T04:02:51;70.07;;;27.30;;
8100;SDS011;4093;53.470;9.832;2023-01-26T04:05:37;58.97;;;26.23;;
8100;SDS011;4093;53.470;9.832;2023-01-26T04:08:41;69.83;;;27.10;;
8100;SDS011;4093;53.470;9.832;2023-01-26T04:11:09;72.60;;;27.37;;
8100;SDS011;4093;53.470;9.832;2023-01-26T04:13:37;75.83;;;28.83;;
8100;SDS011;4093;53.470;9.832;2023-01-26T04:16:21;73.00;;;26.77;;
8100;SDS011;4093;53.470;9.832;2023-01-26T04:19:07;67.07;;;25.20;;
8100;SDS011;4093;53.470;9.832;2023-01-26T04:21:54;69.37;;;25.13;;
8100;SDS011;4093;53.470;9.832;2023-01-26T04:24:22;68.83;;;26.40;;
8100;SDS011;4093;53.470;9.832;2023-01-26T04:26:50;69.20;;;28.23;;
8100;SDS011;4093;53.470;9.832;2023-01-26T04:29:17;65.83;;;24.83;;
8100;SDS011;4093;53.470;9.832;2023-01-26T04:31:45;60.53;;;24.10;;
8100;SDS011;4093;53.470;9.832;2023-01-26T04:34:13;58.30;;;24.60;;
8100;SDS011;4093;53.470;9.832;2023-01-26T04:36:42;58.03;;;24.40;;
8100;SDS011;4093;53.470;9.832;2023-01-26T04:39:11;58.93;;;24.27;;
8100;SDS011;4093;53.470;9.832;2023-01-26T04:41:38;54.00;;;24.73;;
8100;SDS011;4093;53.470;9.832;2023-01-26T04:44:07;56.73;;;24.00;;
8100;SDS011;4093;53.470;9.832;2023-01-26T04:46:35;59.07;;;22.97;;
8100;SDS011;4093;53.470;9.832;2023-01-26T04:49:03;56.10;;;24.17;;
8100;SDS011;4093;53.470;9.832;2023-01-26T04:51:30;53.97;;;22.90;;
8100;SDS011;4093;53.470;9.832;2023-01-26T04:53:58;57.80;;;23.03;;
8100;SDS011;4093;53.470;9.832;2023-01-26T04:56:28;55.93;;;23.60;;
8100;SDS011;4093;53.470;9.832;2023-01-26T04:58:57;51.60;;;22.70;;
8100;SDS011;4093;53.470;9.832;2023-01-26T05:01:26;54.80;;;22.07;;
8100;SDS011;4093;53.470;9.832;2023-01-26T05:03:54;57.97;;;23.67;;
8100;SDS011;4093;53.470;9.832;2023-01-26T05:06:25;49.80;;;21.80;;
8100;SDS011;4093;53.470;9.832;2023-01-26T05:08:52;50.93;;;22.40;;
8100;SDS011;4093;53.470;9.832;2023-01-26T05:11:20;49.73;;;22.73;;
8100;SDS011;4093;53.470;9.832;2023-01-26T05:13:49;53.03;;;22.17;;
8100;SDS011;4093;53.470;9.832;2023-01-26T05:16:17;48.70;;;21.23;;
8100;SDS011;4093;53.470;9.832;2023-01-26T05:18:45;54.27;;;22.40;;
8100;SDS011;4093;53.470;9.832;2023-01-26T05:21:12;49.60;;;20.50;;
8100;SDS011;4093;53.470;9.832;2023-01-26T05:23:40;47.80;;;20.67;;
8100;SDS011;4093;53.470;9.832;2023-01-26T05:26:08;55.60;;;22.93;;
8100;SDS011;4093;53.470;9.832;2023-01-26T05:28:35;56.90;;;22.00;;
8100;SDS011;4093;53.470;9.832;2023-01-26T05:31:04;48.27;;;19.93;;
8100;SDS011;4093;53.470;9.832;2023-01-26T05:33:32;55.67;;;21.73;;
8100;SDS011;4093;53.470;9.832;2023-01-26T05:36:02;47.83;;;20.00;;
8100;SDS011;4093;53.470;9.832;2023-01-26T05:38:32;55.17;;;22.80;;
8100;SDS011;4093;53.470;9.832;2023-01-26T05:41:00;49.03;;;20.43;;
8100;SDS011;4093;53.470;9.832;2023-01-26T05:43:28;49.73;;;22.80;;
8100;SDS011;4093;53.470;9.832;2023-01-26T05:45:55;48.27;;;20.30;;
8100;SDS011;4093;53.470;9.832;2023-01-26T05:48:24;49.73;;;21.50;;
8100;SDS011;4093;53.470;9.832;2023-01-26T05:50:54;50.30;;;20.80;;
8100;SDS011;4093;53.470;9.832;2023-01-26T05:53:22;49.30;;;22.47;;
8100;SDS011;4093;53.470;9.832;2023-01-26T05:55:49;46.23;;;20.63;;
8100;SDS011;4093;53.470;9.832;2023-01-26T05:58:17;47.07;;;20.23;;
8100;SDS011;4093;53.470;9.832;2023-01-26T06:00:45;42.13;;;19.77;;
8100;SDS011;4093;53.470;9.832;2023-01-26T06:03:12;50.17;;;21.27;;
8100;SDS011;4093;53.470;9.832;2023-01-26T06:05:41;48.90;;;21.27;;
8100;SDS011;4093;53.470;9.832;2023-01-26T06:08:09;48.63;;;19.07;;
8100;SDS011;4093;53.470;9.832;2023-01-26T06:10:37;49.73;;;19.90;;
8100;SDS011;4093;53.470;9.832;2023-01-26T06:13:06;47.60;;;20.50;;
8100;SDS011;4093;53.470;9.832;2023-01-26T06:15:34;39.40;;;17.80;;
8100;SDS011;4093;53.470;9.832;2023-01-26T06:18:01;42.93;;;20.30;;
8100;SDS011;4093;53.470;9.832;2023-01-26T06:20:29;47.07;;;20.57;;
8100;SDS011;4093;53.470;9.832;2023-01-26T06:22:59;47.03;;;20.00;;
8100;SDS011;4093;53.470;9.832;2023-01-26T06:25:27;41.10;;;17.93;;
8100;SDS011;4093;53.470;9.832;2023-01-26T06:27:58;40.63;;;17.97;;
8100;SDS011;4093;53.470;9.832;2023-01-26T06:30:25;45.80;;;18.90;;
8100;SDS011;4093;53.470;9.832;2023-01-26T06:32:53;43.83;;;19.73;;
8100;SDS011;4093;53.470;9.832;2023-01-26T06:35:24;44.63;;;19.77;;
8100;SDS011;4093;53.470;9.832;2023-01-26T06:37:52;45.93;;;19.07;;
8100;SDS011;4093;53.470;9.832;2023-01-26T06:40:21;44.33;;;19.10;;
8100;SDS011;4093;53.470;9.832;2023-01-26T06:42:49;53.47;;;20.77;;
8100;SDS011;4093;53.470;9.832;2023-01-26T06:45:17;44.67;;;18.03;;
8100;SDS011;4093;53.470;9.832;2023-01-26T06:47:46;43.73;;;17.97;;
8100;SDS011;4093;53.470;9.832;2023-01-26T06:50:14;44.97;;;18.60;;
8100;SDS011;4093;53.470;9.832;2023-01-26T06:52:45;44.37;;;17.90;;
8100;SDS011;4093;53.470;9.832;2023-01-26T06:55:15;43.70;;;18.57;;
8100;SDS011;4093;53.470;9.832;2023-01-26T06:57:46;48.90;;;19.53;;
8100;SDS011;4093;53.470;9.832;2023-01-26T07:00:14;46.17;;;20.77;;
8100;SDS011;4093;53.470;9.832;2023-01-26T07:02:42;41.93;;;18.50;;
8100;SDS011;4093;53.470;9.832;2023-01-26T07:05:10;43.50;;;19.27;;
8100;SDS011;4093;53.470;9.832;2023-01-26T07:07:38;45.40;;;19.73;;
8100;SDS011;4093;53.470;9.832;2023-01-26T07:10:05;38.63;;;17.07;;
8100;SDS011;4093;53.470;9.832;2023-01-26T07:12:38;43.80;;;19.07;;
8100;SDS011;4093;53.470;9.832;2023-01-26T07:15:08;46.47;;;21.13;;
8100;SDS011;4093;53.470;9.832;2023-01-26T07:17:38;46.43;;;19.43;;
8100;SDS011;4093;53.470;9.832;2023-01-26T07:20:06;43.00;;;18.60;;
8100;SDS011;4093;53.470;9.832;2023-01-26T07:22:35;53.13;;;20.90;;
8100;SDS011;4093;53.470;9.832;2023-01-26T07:25:03;47.77;;;20.13;;
8100;SDS011;4093;53.470;9.832;2023-01-26T07:27:31;42.53;;;19.13;;
8100;SDS011;4093;53.470;9.832;2023-01-26T07:29:58;44.17;;;18.87;;
8100;SDS011;4093;53.470;9.832;2023-01-26T07:32:27;46.77;;;19.63;;
8100;SDS011;4093;53.470;9.832;2023-01-26T07:34:55;44.53;;;21.17;;
8100;SDS011;4093;53.470;9.832;2023-01-26T07:37:25;43.77;;;18.53;;
8100;SDS011;4093;53.470;9.832;2023-01-26T07:39:54;46.27;;;19.83;;
8100;SDS011;4093;53.470;9.832;2023-01-26T07:42:22;50.07;;;19.77;;
8100;SDS011;4093;53.470;9.832;2023-01-26T07:44:49;54.83;;;20.60;;
8100;SDS011;4093;53.470;9.832;2023-01-26T07:47:17;46.70;;;21.13;;
8100;SDS011;4093;53.470;9.832;2023-01-26T07:49:47;44.87;;;20.57;;
8100;SDS011;4093;53.470;9.832;2023-01-26T07:52:14;48.83;;;20.00;;
8100;SDS011;4093;53.470;9.832;2023-01-26T07:54:42;43.63;;;19.07;;
8100;SDS011;4093;53.470;9.832;2023-01-26T07:57:10;43.43;;;18.10;;
8100;SDS011;4093;53.470;9.832;2023-01-26T07:59:38;47.87;;;19.00;;
8100;SDS011;4093;53.470;9.832;2023-01-26T08:02:07;49.63;;;21.03;;
8100;SDS011;4093;53.470;9.832;2023-01-26T08:04:35;45.50;;;19.07;;
8100;SDS011;4093;53.470;9.832;2023-01-26T08:07:04;43.07;;;18.67;;
8100;SDS011;4093;53.470;9.832;2023-01-26T08:09:32;50.40;;;20.63;;
8100;SDS011;4093;53.470;9.832;2023-01-26T08:12:01;54.83;;;20.77;;
8100;SDS011;4093;53.470;9.832;2023-01-26T08:14:28;44.50;;;20.30;;
8100;SDS011;4093;53.470;9.832;2023-01-26T08:17:10;41.90;;;18.03;;
8100;SDS011;4093;53.470;9.832;2023-01-26T08:19:38;46.47;;;17.93;;
8100;SDS011;4093;53.470;9.832;2023-01-26T08:22:06;41.50;;;19.13;;
8100;SDS011;4093;53.470;9.832;2023-01-26T08:24:34;49.80;;;19.20;;
8100;SDS011;4093;53.470;9.832;2023-01-26T08:27:02;45.73;;;18.87;;
8100;SDS011;4093;53.470;9.832;2023-01-26T08:29:30;44.00;;;18.17;;
8100;SDS011;4093;53.470;9.832;2023-01-26T08:31:58;43.77;;;19.57;;
8100;SDS011;4093;53.470;9.832;2023-01-26T08:34:26;44.50;;;21.20;;
8100;SDS011;4093;53.470;9.832;2023-01-26T08:36:53;46.50;;;20.47;;
8100;SDS011;4093;53.470;9.832;2023-01-26T08:39:22;42.33;;;18.57;;
8100;SDS011;4093;53.470;9.832;2023-01-26T08:41:50;38.17;;;18.47;;
8100;SDS011;4093;53.470;9.832;2023-01-26T08:44:18;43.23;;;18.90;;
8100;SDS011;4093;53.470;9.832;2023-01-26T08:46:45;42.17;;;18.47;;
8100;SDS011;4093;53.470;9.832;2023-01-26T08:49:13;45.13;;;19.03;;
8100;SDS011;4093;53.470;9.832;2023-01-26T08:51:41;38.33;;;18.07;;
8100;SDS011;4093;53.470;9.832;2023-01-26T08:54:09;37.03;;;17.67;;
8100;SDS011;4093;53.470;9.832;2023-01-26T08:56:37;40.53;;;17.77;;
8100;SDS011;4093;53.470;9.832;2023-01-26T08:59:06;42.47;;;17.63;;
8100;SDS011;4093;53.470;9.832;2023-01-26T09:01:33;40.07;;;16.63;;
8100;SDS011;4093;53.470;9.832;2023-01-26T09:04:01;39.60;;;17.40;;
8100;SDS011;4093;53.470;9.832;2023-01-26T09:06:29;41.53;;;17.03;;
8100;SDS011;4093;53.470;9.832;2023-01-26T09:08:58;39.83;;;17.17;;
8100;SDS011;4093;53.470;9.832;2023-01-26T09:11:25;38.53;;;17.13;;
8100;SDS011;4093;53.470;9.832;2023-01-26T09:13:54;37.07;;;16.33;;
8100;SDS011;4093;53.470;9.832;2023-01-26T09:16:22;39.07;;;15.97;;
8100;SDS011;4093;53.470;9.832;2023-01-26T09:18:51;33.77;;;15.27;;
8100;SDS011;4093;53.470;9.832;2023-01-26T09:21:20;39.03;;;17.03;;
8100;SDS011;4093;53.470;9.832;2023-01-26T09:23:49;33.67;;;16.10;;
8100;SDS011;4093;53.470;9.832;2023-01-26T09:26:16;33.70;;;14.73;;
8100;SDS011;4093;53.470;9.832;2023-01-26T09:28:47;32.67;;;14.73;;
8100;SDS011;4093;53.470;9.832;2023-01-26T09:31:17;35.07;;;15.57;;
8100;SDS011;4093;53.470;9.832;2023-01-26T09:33:46;37.23;;;15.70;;
8100;SDS011;4093;53.470;9.832;2023-01-26T09:36:14;34.77;;;15.27;;
8100;SDS011;4093;53.470;9.832;2023-01-26T09:38:43;27.57;;;13.80;;
8100;SDS011;4093;53.470;9.832;2023-01-26T09:41:16;32.63;;;14.97;;
8100;SDS011;4093;53.470;9.832;2023-01-26T09:43:49;34.47;;;15.53;;
8100;SDS011;4093;53.470;9.832;2023-01-26T09:46:21;27.80;;;14.13;;
8100;SDS011;4093;53.470;9.832;2023-01-26T09:48:54;32.40;;;14.40;;
8100;SDS011;4093;53.470;9.832;2023-01-26T09:51:30;32.53;;;15.30;;
8100;SDS011;4093;53.470;9.832;2023-01-26T09:54:00;28.13;;;13.67;;
8100;SDS011;4093;53.470;9.832;2023-01-26T09:56:32;29.60;;;13.27;;
8100;SDS011;4093;53.470;9.832;2023-01-26T09:59:02;27.30;;;13.87;;
8100;SDS011;4093;53.470;9.832;2023-01-26T10:01:37;32.30;;;14.53;;
8100;SDS011;4093;53.470;9.832;2023-01-26T10:04:10;30.77;;;14.03;;
8100;SDS011;4093;53.470;9.832;2023-01-26T10:06:46;29.63;;;13.97;;
8100;SDS011;4093;53.470;9.832;2023-01-26T10:09:15;25.63;;;12.90;;
8100;SDS011;4093;53.470;9.832;2023-01-26T10:11:50;24.43;;;12.93;;
8100;SDS011;4093;53.470;9.832;2023-01-26T10:14:24;27.57;;;13.10;;
8100;SDS011;4093;53.470;9.832;2023-01-26T10:17:01;28.53;;;13.40;;
8100;SDS011;4093;53.470;9.832;2023-01-26T10:19:32;26.53;;;13.27;;
8100;SDS011;4093;53.470;9.832;2023-01-26T10:22:04;28.20;;;14.03;;
8100;SDS011;4093;53.470;9.832;2023-01-26T10:24:36;23.97;;;11.83;;
8100;SDS011;4093;53.470;9.832;2023-01-26T10:27:08;25.13;;;13.03;;
8100;SDS011;4093;53.470;9.832;2023-01-26T10:29:39;25.83;;;12.97;;
8100;SDS011;4093;53.470;9.832;2023-01-26T10:32:10;29.37;;;13.93;;
8100;SDS011;4093;53.470;9.832;2023-01-26T10:34:40;27.50;;;12.87;;
8100;SDS011;4093;53.470;9.832;2023-01-26T10:37:17;23.87;;;12.20;;
8100;SDS011;4093;53.470;9.832;2023-01-26T10:39:57;23.47;;;12.20;;
8100;SDS011;4093;53.470;9.832;2023-01-26T10:42:27;24.53;;;12.57;;
8100;SDS011;4093;53.470;9.832;2023-01-26T10:44:56;30.03;;;13.10;;
8100;SDS011;4093;53.470;9.832;2023-01-26T10:47:28;29.23;;;13.73;;
8100;SDS011;4093;53.470;9.832;2023-01-26T10:50:17;25.73;;;13.80;;
8100;SDS011;4093;53.470;9.832;2023-01-26T10:52:58;26.63;;;12.60;;
8100;SDS011;4093;53.470;9.832;2023-01-26T10:55:27;27.73;;;12.37;;
8100;SDS011;4093;53.470;9.832;2023-01-26T10:57:55;29.77;;;13.20;;
8100;SDS011;4093;53.470;9.832;2023-01-26T11:00:24;29.23;;;14.13;;
8100;SDS011;4093;53.470;9.832;2023-01-26T11:02:57;26.77;;;13.20;;
8100;SDS011;4093;53.470;9.832;2023-01-26T11:05:31;31.13;;;15.57;;
8100;SDS011;4093;53.470;9.832;2023-01-26T11:07:59;33.80;;;15.53;;
8100;SDS011;4093;53.470;9.832;2023-01-26T11:10:29;31.53;;;14.80;;
8100;SDS011;4093;53.470;9.832;2023-01-26T11:13:11;29.73;;;13.57;;
8100;SDS011;4093;53.470;9.832;2023-01-26T11:15:42;29.40;;;14.57;;
8100;SDS011;4093;53.470;9.832;2023-01-26T11:18:25;27.97;;;13.43;;
8100;SDS011;4093;53.470;9.832;2023-01-26T11:21:02;29.60;;;12.87;;
8100;SDS011;4093;53.470;9.832;2023-01-26T11:23:38;26.97;;;12.57;;
8100;SDS011;4093;53.470;9.832;2023-01-26T11:26:19;32.37;;;14.00;;
8100;SDS011;4093;53.470;9.832;2023-01-26T11:29:04;32.37;;;13.43;;
8100;SDS011;4093;53.470;9.832;2023-01-26T11:31:45;30.47;;;12.80;;
8100;SDS011;4093;53.470;9.832;2023-01-26T11:34:27;30.70;;;13.33;;
8100;SDS011;4093;53.470;9.832;2023-01-26T11:37:04;27.63;;;12.50;;
8100;SDS011;4093;53.470;9.832;2023-01-26T11:39:52;28.43;;;13.70;;
8100;SDS011;4093;53.470;9.832;2023-01-26T11:42:31;32.03;;;12.93;;
8100;SDS011;4093;53.470;9.832;2023-01-26T11:45:16;25.97;;;12.07;;
8100;SDS011;4093;53.470;9.832;2023-01-26T11:47:55;30.97;;;12.63;;
8100;SDS011;4093;53.470;9.832;2023-01-26T11:50:34;30.10;;;12.93;;
8100;SDS011;4093;53.470;9.832;2023-01-26T11:53:10;34.33;;;13.30;;
8100;SDS011;4093;53.470;9.832;2023-01-26T11:55:53;24.80;;;12.70;;
8100;SDS011;4093;53.470;9.832;2023-01-26T11:58:30;28.50;;;11.90;;
8100;SDS011;4093;53.470;9.832;2023-01-26T12:01:04;34.13;;;13.60;;
8100;SDS011;4093;53.470;9.832;2023-01-26T12:03:40;32.93;;;13.07;;
8100;SDS011;4093;53.470;9.832;2023-01-26T12:06:14;27.97;;;12.73;;
8100;SDS011;4093;53.470;9.832;2023-01-26T12:08:45;29.57;;;13.90;;
8100;SDS011;4093;53.470;9.832;2023-01-26T12:11:18;25.97;;;13.33;;
8100;SDS011;4093;53.470;9.832;2023-01-26T12:13:53;29.80;;;14.37;;
8100;SDS011;4093;53.470;9.832;2023-01-26T12:16:30;29.87;;;12.63;;
8100;SDS011;4093;53.470;9.832;2023-01-26T12:19:21;28.77;;;13.10;;
8100;SDS011;4093;53.470;9.832;2023-01-26T12:22:02;24.67;;;12.23;;
8100;SDS011;4093;53.470;9.832;2023-01-26T12:24:37;31.77;;;12.70;;
8100;SDS011;4093;53.470;9.832;2023-01-26T12:27:30;37.83;;;13.23;;
8100;SDS011;4093;53.470;9.832;2023-01-26T12:30:04;28.03;;;12.33;;
8100;SDS011;4093;53.470;9.832;2023-01-26T12:32:48;29.40;;;12.00;;
8100;SDS011;4093;53.470;9.832;2023-01-26T12:35:26;28.87;;;13.00;;
8100;SDS011;4093;53.470;9.832;2023-01-26T12:38:06;27.80;;;12.30;;
8100;SDS011;4093;53.470;9.832;2023-01-26T12:40:46;33.53;;;13.47;;
8100;SDS011;4093;53.470;9.832;2023-01-26T12:43:23;33.63;;;13.43;;
8100;SDS011;4093;53.470;9.832;2023-01-26T12:46:04;28.73;;;13.23;;
8100;SDS011;4093;53.470;9.832;2023-01-26T12:48:36;30.77;;;13.67;;
8100;SDS011;4093;53.470;9.832;2023-01-26T12:51:08;33.20;;;13.70;;
8100;SDS011;4093;53.470;9.832;2023-01-26T12:53:44;30.30;;;12.83;;
8100;SDS011;4093;53.470;9.832;2023-01-26T12:56:20;25.80;;;11.93;;
8100;SDS011;4093;53.470;9.832;2023-01-26T12:58:52;35.67;;;13.23;;
8100;SDS011;4093;53.470;9.832;2023-01-26T13:01:22;38.93;;;13.43;;
8100;SDS011;4093;53.470;9.832;2023-01-26T13:03:54;34.70;;;13.40;;
8100;SDS011;4093;53.470;9.832;2023-01-26T13:06:24;38.43;;;14.43;;
8100;SDS011;4093;53.470;9.832;2023-01-26T13:09:02;30.30;;;13.00;;
8100;SDS011;4093;53.470;9.832;2023-01-26T13:11:50;27.57;;;12.47;;
8100;SDS011;4093;53.470;9.832;2023-01-26T13:14:27;29.50;;;11.30;;
8100;SDS011;4093;53.470;9.832;2023-01-26T13:20:26;31.03;;;12.63;;
8100;SDS011;4093;53.470;9.832;2023-01-26T13:26:14;27.00;;;12.87;;
8100;SDS011;4093;53.470;9.832;2023-01-26T13:28:44;33.20;;;13.23;;
8100;SDS011;4093;53.470;9.832;2023-01-26T13:31:14;37.20;;;13.73;;
8100;SDS011;4093;53.470;9.832;2023-01-26T13:33:57;32.67;;;13.17;;
8100;SDS011;4093;53.470;9.832;2023-01-26T13:36:29;35.53;;;13.93;;
8100;SDS011;4093;53.470;9.832;2023-01-26T13:39:02;35.87;;;13.70;;
8100;SDS011;4093;53.470;9.832;2023-01-26T13:41:44;39.77;;;14.57;;
8100;SDS011;4093;53.470;9.832;2023-01-26T13:44:14;30.27;;;12.40;;
8100;SDS011;4093;53.470;9.832;2023-01-26T13:46:47;34.73;;;13.37;;
8100;SDS011;4093;53.470;9.832;2023-01-26T13:49:22;37.27;;;13.90;;
8100;SDS011;4093;53.470;9.832;2023-01-26T13:51:51;32.13;;;12.43;;
8100;SDS011;4093;53.470;9.832;2023-01-26T13:54:19;36.73;;;14.30;;
8100;SDS011;4093;53.470;9.832;2023-01-26T13:57:00;36.97;;;14.47;;
8100;SDS011;4093;53.470;9.832;2023-01-26T13:59:29;33.93;;;12.63;;
8100;SDS011;4093;53.470;9.832;2023-01-26T14:01:58;36.40;;;12.20;;
8100;SDS011;4093;53.470;9.832;2023-01-26T14:04:29;29.90;;;11.93;;
8100;SDS011;4093;53.470;9.832;2023-01-26T14:07:00;35.03;;;12.10;;
8100;SDS011;4093;53.470;9.832;2023-01-26T14:09:31;35.67;;;11.93;;
8100;SDS011;4093;53.470;9.832;2023-01-26T14:12:15;28.57;;;11.43;;
8100;SDS011;4093;53.470;9.832;2023-01-26T14:14:47;33.50;;;11.23;;
8100;SDS011;4093;53.470;9.832;2023-01-26T14:17:24;33.33;;;11.80;;
8100;SDS011;4093;53.470;9.832;2023-01-26T14:19:54;37.50;;;13.60;;
8100;SDS011;4093;53.470;9.832;2023-01-26T14:22:22;34.13;;;11.87;;
8100;SDS011;4093;53.470;9.832;2023-01-26T14:24:50;28.23;;;11.30;;
8100;SDS011;4093;53.470;9.832;2023-01-26T14:27:31;35.00;;;11.87;;
8100;SDS011;4093;53.470;9.832;2023-01-26T14:30:02;39.60;;;12.67;;
8100;SDS011;4093;53.470;9.832;2023-01-26T14:32:48;31.33;;;10.10;;
8100;SDS011;4093;53.470;9.832;2023-01-26T14:35:22;32.37;;;11.60;;
8100;SDS011;4093;53.470;9.832;2023-01-26T14:38:02;25.80;;;10.70;;
8100;SDS011;4093;53.470;9.832;2023-01-26T14:40:31;33.93;;;11.07;;
8100;SDS011;4093;53.470;9.832;2023-01-26T14:43:00;33.83;;;12.53;;
8100;SDS011;4093;53.470;9.832;2023-01-26T14:45:30;36.27;;;11.77;;
8100;SDS011;4093;53.470;9.832;2023-01-26T14:47:59;34.73;;;12.40;;
8100;SDS011;4093;53.470;9.832;2023-01-26T14:50:33;36.00;;;13.20;;
8100;SDS011;4093;53.470;9.832;2023-01-26T14:53:02;42.77;;;13.60;;
8100;SDS011;4093;53.470;9.832;2023-01-26T14:55:32;31.20;;;11.87;;
8100;SDS011;4093;53.470;9.832;2023-01-26T14:58:10;28.63;;;10.40;;
8100;SDS011;4093;53.470;9.832;2023-01-26T15:00:43;25.83;;;10.97;;
8100;SDS011;4093;53.470;9.832;2023-01-26T15:03:16;31.67;;;10.97;;
8100;SDS011;4093;53.470;9.832;2023-01-26T15:05:57;34.13;;;11.83;;
8100;SDS011;4093;53.470;9.832;2023-01-26T15:08:30;36.13;;;12.27;;
8100;SDS011;4093;53.470;9.832;2023-01-26T15:11:01;38.60;;;12.17;;
8100;SDS011;4093;53.470;9.832;2023-01-26T15:13:51;22.33;;;10.53;;
8100;SDS011;4093;53.470;9.832;2023-01-26T15:16:21;26.10;;;11.53;;
8100;SDS011;4093;53.470;9.832;2023-01-26T15:18:59;39.97;;;13.33;;
8100;SDS011;4093;53.470;9.832;2023-01-26T15:21:30;34.03;;;12.70;;
8100;SDS011;4093;53.470;9.832;2023-01-26T15:23:59;26.57;;;11.23;;